Terminal Aerodrome Forecast
Issued by NWS Wilmington, OH

Current Version | Previous Version | Graphics & Text | Print | Product List | Glossary On
Versions: 1 2 3 4 5 6 7 8 9 10 11 12 13 14 15 16 17 18 19 20 21 22 23
450
FTUS41 KILN 221140
TAFILN
TAF
KILN 221140Z 2212/2312 18010KT P6SM BKN100 WS020/21045KT
     FM221600 18014G22KT P6SM VCSH SCT020 BKN080 WS020/19045KT
     FM221900 18012G23KT 4SM -SHRA BR OVC020
     FM222300 18010KT P6SM VCSH SCT015 BKN030
     FM230300 22012KT P6SM BKN030 OVC060=

USA.gov is the U.S. government's official web portal to all federal, state and local government web resources and services.